createdAt,value
2019-02-19T00:02:17.458Z,10.73
2019-02-19T00:04:46.154Z,14.80
2019-02-19T00:07:15.402Z,12.13
2019-02-19T00:09:44.138Z,10.33
2019-02-19T00:12:12.928Z,17.30
2019-02-19T00:14:41.690Z,13.17
2019-02-19T00:17:10.517Z,21.93
2019-02-19T00:19:39.366Z,18.60
2019-02-19T00:22:08.147Z,10.60
2019-02-19T00:24:37.231Z,8.60
2019-02-19T00:27:05.885Z,11.47
2019-02-19T00:29:34.627Z,9.97
2019-02-19T00:32:03.548Z,13.40
2019-02-19T00:34:32.407Z,19.80
2019-02-19T00:37:01.072Z,12.67
2019-02-19T00:39:29.906Z,11.47
2019-02-19T00:41:58.738Z,14.57
2019-02-19T00:44:27.442Z,22.50
2019-02-19T00:46:56.073Z,11.13
2019-02-19T00:49:24.795Z,11.00
2019-02-19T00:51:54.675Z,12.47
2019-02-19T00:54:23.515Z,13.43
2019-02-19T00:56:52.293Z,13.20
2019-02-19T00:59:21.068Z,10.33
2019-02-19T01:01:49.860Z,9.83
2019-02-19T01:04:18.605Z,11.97
2019-02-19T01:06:47.379Z,20.23
2019-02-19T01:09:16.204Z,11.13
2019-02-19T01:11:44.918Z,12.07
2019-02-19T01:14:13.664Z,12.93
2019-02-19T01:16:42.459Z,10.73
2019-02-19T01:19:11.168Z,8.80
2019-02-19T01:21:39.916Z,12.70
2019-02-19T01:24:08.700Z,10.60
2019-02-19T01:26:37.498Z,12.13
2019-02-19T01:29:07.396Z,15.03
2019-02-19T01:31:36.256Z,9.17
2019-02-19T01:34:05.004Z,12.47
2019-02-19T01:36:33.740Z,22.57
2019-02-19T01:39:02.687Z,8.87
2019-02-19T01:41:31.502Z,11.90
2019-02-19T01:44:00.216Z,11.33
2019-02-19T01:46:29.059Z,13.23
2019-02-19T01:48:57.772Z,9.70
2019-02-19T01:51:26.500Z,12.63
2019-02-19T01:53:58.008Z,11.60
2019-02-19T01:56:26.663Z,10.43
2019-02-19T01:58:55.423Z,14.97
2019-02-19T02:01:24.275Z,11.20
2019-02-19T02:03:53.058Z,12.23
2019-02-19T02:06:21.811Z,10.90
2019-02-19T02:08:50.493Z,8.23
2019-02-19T02:11:19.158Z,10.43
2019-02-19T02:13:47.922Z,8.67
2019-02-19T02:16:16.655Z,13.13
2019-02-19T02:18:45.295Z,14.47
2019-02-19T02:21:14.020Z,20.43
2019-02-19T02:23:42.751Z,9.77
2019-02-19T02:26:11.514Z,12.13
2019-02-19T02:28:40.309Z,11.43
2019-02-19T02:31:09.754Z,15.20
2019-02-19T02:33:38.440Z,9.97
2019-02-19T02:36:07.200Z,19.40
2019-02-19T02:38:35.829Z,12.37
2019-02-19T02:41:04.433Z,16.73
2019-02-19T02:43:33.116Z,11.70
2019-02-19T02:46:01.890Z,16.90
2019-02-19T02:48:30.569Z,15.73
2019-02-19T02:50:59.248Z,13.47
2019-02-19T02:53:27.968Z,11.73
2019-02-19T02:55:56.649Z,15.60
2019-02-19T02:58:25.410Z,17.50
2019-02-19T03:00:54.228Z,18.83
2019-02-19T03:03:22.956Z,22.90
2019-02-19T03:05:54.553Z,23.70
2019-02-19T03:08:23.360Z,27.13
2019-02-19T03:10:52.009Z,25.77
2019-02-19T03:13:20.793Z,30.93
2019-02-19T03:15:49.520Z,25.50
2019-02-19T03:18:18.227Z,31.47
2019-02-19T03:20:46.902Z,32.10
2019-02-19T03:23:15.530Z,43.50
2019-02-19T03:25:44.175Z,33.33
2019-02-19T03:28:12.889Z,32.93
2019-02-19T03:30:41.866Z,30.40
2019-02-19T03:33:10.592Z,43.40
2019-02-19T03:35:39.379Z,41.23
2019-02-19T03:38:08.113Z,36.57
2019-02-19T03:40:37.235Z,36.27
2019-02-19T03:43:05.936Z,53.93
2019-02-19T03:45:34.718Z,35.80
2019-02-19T03:48:03.465Z,50.53
2019-02-19T03:50:32.166Z,48.80
2019-02-19T03:53:00.981Z,37.13
2019-02-19T03:55:29.848Z,47.70
2019-02-19T03:57:58.591Z,37.80
2019-02-19T04:00:27.395Z,40.53
2019-02-19T04:02:56.122Z,54.10
2019-02-19T04:05:24.869Z,41.13
2019-02-19T04:07:53.598Z,38.27
2019-02-19T04:10:22.363Z,38.57
2019-02-19T04:12:51.059Z,43.00
2019-02-19T04:15:19.859Z,43.63
2019-02-19T04:17:48.607Z,42.00
2019-02-19T04:20:17.390Z,33.70
2019-02-19T04:22:46.132Z,46.50
2019-02-19T04:25:14.893Z,45.30
2019-02-19T04:27:43.703Z,39.33
2019-02-19T04:30:12.485Z,36.27
2019-02-19T04:32:41.253Z,40.00
2019-02-19T04:35:10.273Z,36.93
2019-02-19T04:37:39.147Z,37.83
2019-02-19T04:40:08.895Z,40.23
2019-02-19T04:42:37.643Z,32.60
2019-02-19T04:45:06.492Z,50.60
2019-02-19T04:47:35.126Z,40.07
2019-02-19T04:50:04.954Z,35.83
2019-02-19T04:52:33.696Z,45.00
2019-02-19T04:55:02.436Z,35.33
2019-02-19T04:57:31.156Z,34.97
2019-02-19T04:59:59.918Z,32.73
2019-02-19T05:02:28.671Z,50.97
2019-02-19T05:04:57.392Z,49.87
2019-02-19T05:07:26.125Z,40.23
2019-02-19T05:09:55.315Z,40.40
2019-02-19T05:12:24.127Z,51.50
2019-02-19T05:14:52.867Z,35.53
2019-02-19T05:17:21.682Z,39.83
2019-02-19T05:19:50.597Z,47.17
2019-02-19T05:22:19.462Z,43.80
2019-02-19T05:24:48.299Z,39.17
2019-02-19T05:27:17.275Z,49.37
2019-02-19T05:29:45.992Z,54.00
2019-02-19T05:32:14.771Z,47.77
2019-02-19T05:34:43.562Z,34.10
2019-02-19T05:37:12.348Z,43.57
2019-02-19T05:39:41.123Z,34.77
2019-02-19T05:42:09.793Z,39.83
2019-02-19T05:44:38.522Z,33.63
2019-02-19T05:47:07.344Z,36.50
2019-02-19T05:49:36.072Z,41.07
2019-02-19T05:52:04.906Z,39.10
2019-02-19T05:54:33.639Z,33.57
2019-02-19T05:57:02.285Z,41.60
2019-02-19T05:59:32.524Z,40.10
2019-02-19T06:02:01.541Z,34.00
2019-02-19T06:04:30.314Z,43.37
2019-02-19T06:06:59.172Z,33.00
2019-02-19T06:09:27.859Z,38.02
2019-02-19T06:11:56.531Z,30.63
2019-02-19T06:14:25.270Z,38.87
2019-02-19T06:16:58.511Z,38.83
2019-02-19T06:19:24.483Z,45.50
2019-02-19T06:21:53.214Z,32.40
2019-02-19T06:24:22.005Z,41.60
2019-02-19T06:26:50.738Z,37.07
2019-02-19T06:29:19.444Z,38.30
2019-02-19T06:31:48.278Z,40.03
2019-02-19T06:34:17.032Z,38.77
2019-02-19T06:36:45.880Z,37.90
2019-02-19T06:39:14.727Z,40.30
2019-02-19T06:41:43.496Z,45.37
2019-02-19T06:44:12.283Z,42.07
2019-02-19T06:46:41.020Z,47.87
2019-02-19T06:49:09.805Z,53.30
2019-02-19T06:51:38.674Z,50.90
2019-02-19T06:54:07.342Z,44.97
2019-02-19T06:56:36.094Z,72.10
2019-02-19T06:59:05.616Z,46.70
2019-02-19T07:01:36.005Z,47.83
2019-02-19T07:04:06.443Z,52.90
2019-02-19T07:06:35.217Z,68.07
2019-02-19T07:09:04.622Z,48.53
2019-02-19T07:11:33.388Z,55.93
2019-02-19T07:14:02.062Z,50.27
2019-02-19T07:16:30.927Z,50.47
2019-02-19T07:18:59.718Z,50.83
2019-02-19T07:21:28.527Z,56.27
2019-02-19T07:24:04.236Z,54.20
2019-02-19T07:26:27.825Z,54.53
2019-02-19T07:28:56.483Z,57.13
2019-02-19T07:31:25.469Z,53.77
2019-02-19T07:33:54.143Z,66.73
2019-02-19T07:36:22.897Z,57.40
2019-02-19T07:38:52.517Z,60.67
2019-02-19T07:41:21.348Z,55.47
2019-02-19T07:43:50.020Z,57.30
2019-02-19T07:46:18.794Z,58.00
2019-02-19T07:48:47.577Z,53.07
2019-02-19T07:51:16.253Z,61.50
2019-02-19T07:53:45.064Z,57.07
2019-02-19T07:56:15.299Z,63.63
2019-02-19T07:58:43.974Z,55.20
2019-02-19T08:01:12.858Z,60.50
2019-02-19T08:03:41.581Z,56.07
2019-02-19T08:06:11.691Z,53.87
2019-02-19T08:08:41.138Z,62.03
2019-02-19T08:11:12.932Z,59.67
2019-02-19T08:13:41.858Z,53.83
2019-02-19T08:16:12.011Z,56.73
2019-02-19T08:18:40.747Z,54.20
2019-02-19T08:21:10.202Z,57.47
2019-02-19T08:23:38.950Z,56.43
2019-02-19T08:26:07.806Z,61.23
2019-02-19T08:28:36.582Z,61.97
2019-02-19T08:31:05.718Z,65.60
2019-02-19T08:33:34.441Z,60.53
2019-02-19T08:36:03.211Z,59.10
2019-02-19T08:38:32.170Z,55.10
2019-02-19T08:41:01.072Z,57.03
2019-02-19T08:43:29.857Z,60.63
2019-02-19T08:45:58.639Z,47.97
2019-02-19T08:48:27.424Z,53.77
2019-02-19T08:50:56.507Z,43.83
2019-02-19T08:53:25.409Z,50.13
2019-02-19T08:55:54.508Z,48.70
2019-02-19T08:58:23.367Z,47.87
2019-02-19T09:00:52.265Z,52.13
2019-02-19T09:03:21.985Z,48.17
2019-02-19T09:05:50.891Z,57.40
2019-02-19T09:08:19.679Z,44.73
2019-02-19T09:10:48.735Z,52.23
2019-02-19T09:13:17.881Z,47.60
2019-02-19T09:15:46.673Z,56.33
2019-02-19T09:18:15.452Z,37.73
2019-02-19T09:20:44.315Z,41.73
2019-02-19T09:23:13.114Z,63.13
2019-02-19T09:25:41.848Z,45.57
2019-02-19T09:28:10.529Z,52.40
2019-02-19T09:30:39.438Z,57.17
2019-02-19T09:33:08.196Z,59.53
2019-02-19T09:35:36.978Z,68.37
2019-02-19T09:38:05.892Z,69.03
2019-02-19T09:40:34.656Z,56.40
2019-02-19T09:43:03.368Z,50.53
2019-02-19T09:45:32.185Z,46.30
2019-02-19T09:48:01.636Z,51.40
2019-02-19T09:50:30.599Z,39.90
2019-02-19T09:53:00.235Z,39.80
2019-02-19T09:55:29.142Z,44.97
2019-02-19T09:57:57.835Z,46.27
2019-02-19T10:00:26.695Z,37.80
2019-02-19T10:02:56.790Z,37.77
2019-02-19T10:05:25.570Z,47.37
2019-02-19T10:07:55.863Z,45.80
2019-02-19T10:10:24.775Z,36.23
2019-02-19T10:12:53.500Z,29.73
2019-02-19T10:15:22.691Z,28.30
2019-02-19T10:17:51.495Z,28.87
2019-02-19T10:20:20.346Z,28.60
2019-02-19T10:22:49.029Z,43.70
2019-02-19T10:25:17.843Z,30.20
2019-02-19T10:27:46.556Z,29.40
2019-02-19T10:30:18.945Z,27.37
2019-02-19T10:32:47.823Z,33.60
2019-02-19T10:35:16.616Z,31.30
2019-02-19T10:37:45.435Z,23.90
2019-02-19T10:40:16.674Z,37.03
2019-02-19T10:42:45.398Z,32.33
2019-02-19T10:45:16.918Z,23.93
2019-02-19T10:47:45.672Z,24.03
2019-02-19T10:50:14.536Z,29.37
2019-02-19T10:52:43.318Z,29.57
2019-02-19T10:55:12.165Z,23.40
2019-02-19T10:57:40.984Z,21.53
2019-02-19T11:00:13.178Z,18.40
2019-02-19T11:02:41.994Z,19.67
2019-02-19T11:05:11.248Z,33.47
2019-02-19T11:07:39.990Z,17.40
2019-02-19T11:10:10.825Z,16.20
2019-02-19T11:12:40.403Z,23.83
2019-02-19T11:15:11.115Z,27.83
2019-02-19T11:17:40.034Z,33.87
2019-02-19T11:20:11.649Z,15.20
2019-02-19T11:22:40.449Z,29.97
2019-02-19T11:25:11.632Z,18.23
2019-02-19T11:27:40.705Z,21.20
2019-02-19T11:30:12.928Z,28.03
2019-02-19T11:32:41.751Z,23.03
2019-02-19T11:35:10.814Z,22.10
2019-02-19T11:37:39.600Z,26.23
2019-02-19T11:40:10.957Z,19.27
2019-02-19T11:42:39.833Z,24.57
2019-02-19T11:45:11.407Z,18.53
2019-02-19T11:47:40.332Z,14.27
2019-02-19T11:50:11.059Z,14.93
2019-02-19T11:52:39.868Z,15.90
2019-02-19T11:55:11.679Z,19.90
2019-02-19T11:57:40.510Z,19.90
2019-02-19T12:00:13.901Z,17.13
2019-02-19T12:02:42.646Z,22.47
2019-02-19T12:05:11.578Z,16.97
2019-02-19T12:07:40.415Z,20.93
2019-02-19T12:10:11.784Z,19.70
2019-02-19T12:12:40.602Z,20.13
2019-02-19T12:15:11.541Z,22.97
2019-02-19T12:17:40.740Z,31.33
2019-02-19T12:20:11.890Z,24.37
2019-02-19T12:22:40.639Z,22.30
2019-02-19T12:25:10.577Z,21.47
2019-02-19T12:27:39.625Z,24.23
2019-02-19T12:30:11.931Z,17.43
2019-02-19T12:32:43.633Z,24.17
2019-02-19T12:35:12.736Z,16.00
2019-02-19T12:37:41.687Z,21.90
2019-02-19T12:40:12.328Z,23.47
2019-02-19T12:42:41.218Z,27.57
2019-02-19T12:45:11.935Z,20.03
2019-02-19T12:47:40.701Z,16.30
2019-02-19T12:50:11.883Z,17.73
2019-02-19T12:52:40.667Z,17.03
2019-02-19T12:55:10.535Z,20.03
2019-02-19T12:57:43.428Z,23.63
2019-02-19T13:00:16.687Z,17.03
2019-02-19T13:03:07.087Z,14.13
2019-02-19T13:05:38.225Z,15.40
2019-02-19T13:08:08.215Z,15.70
2019-02-19T13:10:40.200Z,21.77
2019-02-19T13:13:09.244Z,20.57
2019-02-19T13:15:38.316Z,19.20
2019-02-19T13:18:08.807Z,19.80
2019-02-19T13:20:41.736Z,17.53
2019-02-19T13:23:13.463Z,15.93
2019-02-19T13:25:42.307Z,24.97
2019-02-19T13:28:11.134Z,13.50
2019-02-19T13:30:44.607Z,14.57
2019-02-19T13:33:13.353Z,11.93
2019-02-19T13:35:43.414Z,11.07
2019-02-19T13:38:12.159Z,9.33
2019-02-19T13:40:40.922Z,16.70
2019-02-19T13:43:09.696Z,22.67
2019-02-19T13:45:38.555Z,12.63
2019-02-19T13:48:07.334Z,12.67
2019-02-19T13:50:36.172Z,19.33
2019-02-19T13:53:06.540Z,15.03
2019-02-19T13:55:43.542Z,26.47
2019-02-19T13:58:12.496Z,11.40
2019-02-19T14:00:42.939Z,11.10
2019-02-19T14:03:11.964Z,21.57
2019-02-19T14:05:40.899Z,17.80
2019-02-19T14:08:14.486Z,15.50
2019-02-19T14:10:41.272Z,15.57
2019-02-19T14:13:10.644Z,17.40
2019-02-19T14:15:40.604Z,18.70
2019-02-19T14:18:11.072Z,25.97
2019-02-19T14:20:41.616Z,27.43
2019-02-19T14:23:12.699Z,14.00
2019-02-19T14:25:43.125Z,12.17
2019-02-19T14:28:11.915Z,27.77
2019-02-19T14:30:43.062Z,14.17
2019-02-19T14:33:13.511Z,14.30
2019-02-19T14:35:43.921Z,19.63
2019-02-19T14:38:14.397Z,19.07
2019-02-19T14:40:44.869Z,19.17
2019-02-19T14:43:15.348Z,19.03
2019-02-19T14:45:45.851Z,14.40
2019-02-19T14:48:14.607Z,16.33
2019-02-19T14:50:45.043Z,17.47
2019-02-19T14:53:15.387Z,17.37
2019-02-19T14:55:45.910Z,9.00
2019-02-19T14:58:16.323Z,16.23
2019-02-19T15:00:46.139Z,10.10
2019-02-19T15:03:15.975Z,14.87
2019-02-19T15:05:48.339Z,10.80
2019-02-19T15:08:33.507Z,13.93
2019-02-19T15:11:06.554Z,9.90
2019-02-19T15:13:36.980Z,25.43
2019-02-19T15:16:10.309Z,13.37
2019-02-19T15:18:40.639Z,8.90
2019-02-19T15:21:13.309Z,16.40
2019-02-19T15:23:43.666Z,11.63
2019-02-19T15:26:12.543Z,10.93
2019-02-19T15:28:42.853Z,11.37
2019-02-19T15:31:13.342Z,10.40
2019-02-19T15:33:43.721Z,13.80
2019-02-19T15:36:14.761Z,10.90
2019-02-19T15:38:45.135Z,19.03
2019-02-19T15:41:15.497Z,9.80
2019-02-19T15:43:45.926Z,21.50
2019-02-19T15:46:17.668Z,7.93
2019-02-19T15:48:48.045Z,13.07
2019-02-19T15:51:18.442Z,11.27
2019-02-19T15:53:49.035Z,11.53
2019-02-19T15:56:19.384Z,25.23
2019-02-19T15:58:49.791Z,15.40
2019-02-19T16:01:20.051Z,13.03
2019-02-19T16:03:54.778Z,12.47
2019-02-19T16:06:25.251Z,9.13
2019-02-19T16:08:55.640Z,18.00
2019-02-19T16:11:25.960Z,11.17
2019-02-19T16:13:56.350Z,11.47
2019-02-19T16:16:28.286Z,13.17
2019-02-19T16:18:58.848Z,11.20
2019-02-19T16:21:30.616Z,8.03
2019-02-19T16:24:01.006Z,10.63
2019-02-19T16:26:31.380Z,17.03
2019-02-19T16:29:03.017Z,10.47
2019-02-19T16:31:34.831Z,23.23
2019-02-19T16:34:04.634Z,9.80
2019-02-19T16:36:34.962Z,21.77
2019-02-19T16:39:06.297Z,9.97
2019-02-19T16:41:36.666Z,10.90
2019-02-19T16:44:07.005Z,12.40
2019-02-19T16:46:37.397Z,8.60
2019-02-19T16:49:09.198Z,10.83
2019-02-19T16:51:39.647Z,11.07
2019-02-19T16:54:26.261Z,14.90
2019-02-19T16:56:56.630Z,11.20
2019-02-19T16:59:28.465Z,10.87
2019-02-19T17:01:58.837Z,12.40
2019-02-19T17:04:31.212Z,8.67
2019-02-19T17:07:01.497Z,9.03
2019-02-19T17:09:33.259Z,13.30
2019-02-19T17:12:03.603Z,17.60
2019-02-19T17:14:33.979Z,11.40
2019-02-19T17:17:04.075Z,10.57
2019-02-19T17:19:34.497Z,15.37
2019-02-19T17:22:04.883Z,9.33
2019-02-19T17:24:35.250Z,9.80
2019-02-19T17:27:05.532Z,16.23
2019-02-19T17:29:35.948Z,9.13
2019-02-19T17:32:06.217Z,10.00
2019-02-19T17:34:36.661Z,13.93
2019-02-19T17:37:08.395Z,11.03
2019-02-19T17:39:38.718Z,11.80
2019-02-19T17:42:07.469Z,11.03
2019-02-19T17:44:37.923Z,21.30
2019-02-19T17:47:08.421Z,7.80
2019-02-19T17:49:38.188Z,9.43
2019-02-19T17:52:08.913Z,17.40
2019-02-19T17:54:39.291Z,20.00
2019-02-19T17:57:12.443Z,11.20
2019-02-19T17:59:42.886Z,8.70
2019-02-19T18:02:13.190Z,11.80
2019-02-19T18:04:43.583Z,14.77
2019-02-19T18:07:13.951Z,11.73
2019-02-19T18:09:47.302Z,13.87
2019-02-19T18:12:17.650Z,14.30
2019-02-19T18:14:48.075Z,12.83
2019-02-19T18:17:18.421Z,11.50
2019-02-19T18:19:47.245Z,13.23
2019-02-19T18:22:17.452Z,11.63
2019-02-19T18:24:46.173Z,12.30
2019-02-19T18:27:15.068Z,16.17
2019-02-19T18:29:43.813Z,18.03
2019-02-19T18:32:14.287Z,16.37
2019-02-19T18:34:43.166Z,11.80
2019-02-19T18:37:11.969Z,11.67
2019-02-19T18:39:40.967Z,17.63
2019-02-19T18:42:09.858Z,16.67
2019-02-19T18:44:40.113Z,12.17
2019-02-19T18:47:08.975Z,11.40
2019-02-19T18:49:37.764Z,12.13
2019-02-19T18:52:06.607Z,18.40
2019-02-19T18:54:35.372Z,14.37
2019-02-19T18:57:04.337Z,10.87
2019-02-19T18:59:34.694Z,18.17
2019-02-19T19:02:03.532Z,16.10
2019-02-19T19:04:32.348Z,14.40
2019-02-19T19:07:02.693Z,12.77
2019-02-19T19:09:31.428Z,14.63
2019-02-19T19:12:00.317Z,12.00
2019-02-19T19:14:29.152Z,9.53
2019-02-19T19:16:58.302Z,10.40
2019-02-19T19:19:27.095Z,22.67
2019-02-19T19:21:55.922Z,11.20
2019-02-19T19:24:24.799Z,7.77
2019-02-19T19:26:54.926Z,21.07
2019-02-19T19:29:23.702Z,11.40
2019-02-19T19:31:55.444Z,10.07
2019-02-19T19:34:24.372Z,10.60
2019-02-19T19:36:53.272Z,13.63
2019-02-19T19:39:23.594Z,15.43
2019-02-19T19:41:53.405Z,15.50
2019-02-19T19:44:22.259Z,20.73
2019-02-19T19:46:51.134Z,18.83
2019-02-19T19:49:31.693Z,20.93
2019-02-19T19:52:01.950Z,31.93
2019-02-19T19:54:31.324Z,21.17
2019-02-19T19:57:00.244Z,23.07
2019-02-19T19:59:30.426Z,26.20
2019-02-19T20:01:59.761Z,31.97
2019-02-19T20:04:28.692Z,29.73
2019-02-19T20:06:57.582Z,34.23
2019-02-19T20:09:26.373Z,18.60
2019-02-19T20:11:55.093Z,13.40
2019-02-19T20:14:23.905Z,18.43
2019-02-19T20:16:52.772Z,19.83
2019-02-19T20:19:21.627Z,15.93
2019-02-19T20:21:50.465Z,15.10
2019-02-19T20:24:22.930Z,13.93
2019-02-19T20:26:55.101Z,16.07
2019-02-19T20:29:23.958Z,19.37
2019-02-19T20:31:54.368Z,17.80
2019-02-19T20:34:23.594Z,17.70
2019-02-19T20:36:55.200Z,12.47
2019-02-19T20:39:23.982Z,15.70
2019-02-19T20:41:53.030Z,21.63
2019-02-19T20:44:21.859Z,18.97
2019-02-19T20:46:52.937Z,24.10
2019-02-19T20:49:25.803Z,14.20
2019-02-19T20:51:54.682Z,13.50
2019-02-19T20:54:23.544Z,17.00
2019-02-19T20:56:52.468Z,19.43
2019-02-19T20:59:23.010Z,19.83
2019-02-19T21:01:52.025Z,13.93
2019-02-19T21:04:20.831Z,10.57
2019-02-19T21:06:49.712Z,20.50
2019-02-19T21:09:18.515Z,16.50
2019-02-19T21:11:47.501Z,12.17
2019-02-19T21:14:16.386Z,25.07
2019-02-19T21:16:45.413Z,18.50
2019-02-19T21:19:14.418Z,19.03
2019-02-19T21:21:45.160Z,17.17
2019-02-19T21:24:13.893Z,26.87
2019-02-19T21:26:47.447Z,12.33
2019-02-19T21:29:16.286Z,16.10
2019-02-19T21:31:45.737Z,25.50
2019-02-19T21:34:15.527Z,13.43
2019-02-19T21:36:44.357Z,23.50
2019-02-19T21:39:13.942Z,20.73
2019-02-19T21:41:42.763Z,19.67
2019-02-19T21:44:11.558Z,24.80
2019-02-19T21:46:41.279Z,25.23
2019-02-19T21:49:10.175Z,25.83
2019-02-19T21:51:38.858Z,29.93
2019-02-19T21:54:07.521Z,30.40
2019-02-19T21:56:36.487Z,20.97
2019-02-19T21:59:05.635Z,25.60
2019-02-19T22:01:34.442Z,24.80
2019-02-19T22:04:04.753Z,29.80
2019-02-19T22:06:33.580Z,20.63
2019-02-19T22:09:02.767Z,23.93
2019-02-19T22:11:33.063Z,22.43
2019-02-19T22:14:02.078Z,16.43
2019-02-19T22:16:33.853Z,20.63
2019-02-19T22:19:04.277Z,26.47
2019-02-19T22:21:37.310Z,19.77
2019-02-19T22:24:06.047Z,17.30
2019-02-19T22:26:38.397Z,15.83
2019-02-19T22:29:07.124Z,23.57
2019-02-19T22:31:36.032Z,18.40
2019-02-19T22:34:04.866Z,19.40
2019-02-19T22:36:33.585Z,19.10
2019-02-19T22:39:02.649Z,18.30
2019-02-19T22:41:31.439Z,24.70
2019-02-19T22:44:01.863Z,20.80
2019-02-19T22:46:35.188Z,17.57
2019-02-19T22:49:11.454Z,16.93
2019-02-19T22:51:45.343Z,18.60
2019-02-19T22:54:15.625Z,32.13
2019-02-19T22:56:44.453Z,21.87
2019-02-19T23:02:03.077Z,19.23
2019-02-19T23:04:39.060Z,29.20
2019-02-19T23:07:12.532Z,16.10
2019-02-19T23:09:41.353Z,17.90
2019-02-19T23:12:11.390Z,21.10
2019-02-19T23:14:44.934Z,17.73
2019-02-19T23:17:10.989Z,16.40
2019-02-19T23:19:39.748Z,14.47
2019-02-19T23:22:09.096Z,14.63
2019-02-19T23:24:37.744Z,14.40
2019-02-19T23:27:08.527Z,22.27
2019-02-19T23:29:36.942Z,18.00
2019-02-19T23:32:05.784Z,19.00
2019-02-19T23:34:34.453Z,12.20
2019-02-19T23:37:03.583Z,20.33
2019-02-19T23:39:32.324Z,12.00
2019-02-19T23:42:01.090Z,16.00
2019-02-19T23:44:29.888Z,13.60
2019-02-19T23:46:58.721Z,15.90
2019-02-19T23:49:27.525Z,20.30
2019-02-19T23:51:56.302Z,14.40
2019-02-19T23:54:25.137Z,13.17
2019-02-19T23:56:53.915Z,25.87
2019-02-19T23:59:22.688Z,13.13
